Lake Worth, FL (33460)

4:15 PM EDT on July 23, 2016 (GMT -0400)
NOS_NWLON | | Change Station

Elev 0 ft 26.61 °N, 80.03 °W | Updated 39 minutes ago

Mostly Cloudy
Mostly Cloudy
0.0 °F
Feels Like -9 °F
N
4.0
Wind Variable Wind from ENE
Gusts 0.0 mph

Today
High -- | Low -- °F
--% Chance of Precip.
Yesterday
High -- | Low -- °F
Precip. -- in
Pressure 30.03 in
Visibility 10.0 miles
Clouds Few 2400 ft
Mostly Cloudy 13000 ft
Mostly Cloudy 20000 ft
Windchill -9 °F
Dew Point Not available.
Humidity Not available.
Rainfall in
Snow Depth Not available.
6:40 AM 8:12 PM
Waning Gibbous, 83% visible
METAR KPBI 231953Z 08003KT 10SM FEW024 BKN130 BKN200 29/23 A3003 RMK AO2 TSE36 SLP168 CB DSNT NW T02940228
Pressure 30.03 in
Visibility 10.0 miles
Clouds Few 2400 ft
Mostly Cloudy 13000 ft
Mostly Cloudy 20000 ft
Windchill -9 °F
Dew Point Not available.
Humidity Not available.
Rainfall in
Snow Depth Not available.
6:40 AM 8:12 PM
Waning Gibbous, 83% visible
METAR KPBI 231953Z 08003KT 10SM FEW024 BKN130 BKN200 29/23 A3003 RMK AO2 TSE36 SLP168 CB DSNT NW T02940228

10-Day Weather Forecast

Almanac

Astronomy

Jul. 23, 2016 Rise Set
Actual Time
Civil Twilight
Nautical Twilight
Astronomical Twilight
Moon
Length of Visible Light
Length of Day
Tomorrow will be .
, % of the Moon is Illuminated

Today's Extremes

State Highs State Lows

Community

WunderPhotos

Upload Photos

1,926,913 photos uploaded!

WunderBlog® & News

Nearby

Air Quality

  Air Quality AQ Index Pollutant
Not available.

Snow Depth

Station Depth Elevation

Earthquake Activity

City Distance Mag. Time & Date
Minimum magnitude displayed is 2.5.

Coastal Water Temperatures

Place Temperature

Stations

Nearby Weather Stations

Station Location Temp. Windchill Dew Point Humidity Wind Precip. Elev Updated Type
                   

Watches & Warnings

There are currently no watches in effect.